sensor_id;sensor_type;location;lat;lon;timestamp;P1;durP1;ratioP1;P2;durP2;ratioP2
12493;SDS011;8260;51.422;6.786;2023-02-15T00:00:18;26.97;;;17.23;;
12493;SDS011;8260;51.422;6.786;2023-02-15T00:02:47;28.43;;;16.80;;
12493;SDS011;8260;51.422;6.786;2023-02-15T00:05:16;24.17;;;15.90;;
12493;SDS011;8260;51.422;6.786;2023-02-15T00:07:45;28.90;;;17.33;;
12493;SDS011;8260;51.422;6.786;2023-02-15T00:10:13;24.67;;;16.57;;
12493;SDS011;8260;51.422;6.786;2023-02-15T00:12:45;25.50;;;17.13;;
12493;SDS011;8260;51.422;6.786;2023-02-15T00:15:13;27.47;;;17.73;;
12493;SDS011;8260;51.422;6.786;2023-02-15T00:17:42;26.43;;;17.23;;
12493;SDS011;8260;51.422;6.786;2023-02-15T00:20:11;29.13;;;16.43;;
12493;SDS011;8260;51.422;6.786;2023-02-15T00:22:39;24.77;;;17.07;;
12493;SDS011;8260;51.422;6.786;2023-02-15T00:25:08;26.07;;;17.00;;
12493;SDS011;8260;51.422;6.786;2023-02-15T00:27:36;26.10;;;17.07;;
12493;SDS011;8260;51.422;6.786;2023-02-15T00:30:07;25.00;;;17.57;;
12493;SDS011;8260;51.422;6.786;2023-02-15T00:32:36;29.43;;;17.90;;
12493;SDS011;8260;51.422;6.786;2023-02-15T00:35:05;28.10;;;18.23;;
12493;SDS011;8260;51.422;6.786;2023-02-15T00:37:33;27.97;;;17.93;;
12493;SDS011;8260;51.422;6.786;2023-02-15T00:40:02;29.10;;;17.23;;
12493;SDS011;8260;51.422;6.786;2023-02-15T00:42:31;32.43;;;18.53;;
12493;SDS011;8260;51.422;6.786;2023-02-15T00:45:00;27.20;;;17.60;;
12493;SDS011;8260;51.422;6.786;2023-02-15T00:47:30;28.93;;;18.43;;
12493;SDS011;8260;51.422;6.786;2023-02-15T00:49:59;27.93;;;18.20;;
12493;SDS011;8260;51.422;6.786;2023-02-15T00:52:29;28.77;;;17.83;;
12493;SDS011;8260;51.422;6.786;2023-02-15T00:54:58;27.70;;;18.07;;
12493;SDS011;8260;51.422;6.786;2023-02-15T00:57:26;28.73;;;18.10;;
12493;SDS011;8260;51.422;6.786;2023-02-15T00:59:55;26.90;;;18.20;;
12493;SDS011;8260;51.422;6.786;2023-02-15T01:02:26;30.03;;;17.87;;
12493;SDS011;8260;51.422;6.786;2023-02-15T01:04:56;30.13;;;18.20;;
12493;SDS011;8260;51.422;6.786;2023-02-15T01:07:25;27.30;;;17.30;;
12493;SDS011;8260;51.422;6.786;2023-02-15T01:09:54;28.13;;;17.87;;
12493;SDS011;8260;51.422;6.786;2023-02-15T01:12:22;28.93;;;18.33;;
12493;SDS011;8260;51.422;6.786;2023-02-15T01:14:51;28.77;;;18.90;;
12493;SDS011;8260;51.422;6.786;2023-02-15T01:17:20;26.73;;;17.47;;
12493;SDS011;8260;51.422;6.786;2023-02-15T01:19:48;26.40;;;17.37;;
12493;SDS011;8260;51.422;6.786;2023-02-15T01:22:19;29.53;;;18.67;;
12493;SDS011;8260;51.422;6.786;2023-02-15T01:24:48;29.80;;;18.93;;
12493;SDS011;8260;51.422;6.786;2023-02-15T01:27:17;27.73;;;17.63;;
12493;SDS011;8260;51.422;6.786;2023-02-15T01:29:46;30.60;;;18.83;;
12493;SDS011;8260;51.422;6.786;2023-02-15T01:32:15;29.07;;;18.50;;
12493;SDS011;8260;51.422;6.786;2023-02-15T01:34:43;32.00;;;18.97;;
12493;SDS011;8260;51.422;6.786;2023-02-15T01:37:12;27.63;;;17.30;;
12493;SDS011;8260;51.422;6.786;2023-02-15T01:39:42;27.93;;;17.87;;
12493;SDS011;8260;51.422;6.786;2023-02-15T01:42:11;28.77;;;19.20;;
12493;SDS011;8260;51.422;6.786;2023-02-15T01:44:47;29.87;;;18.73;;
12493;SDS011;8260;51.422;6.786;2023-02-15T01:47:16;28.50;;;18.00;;
12493;SDS011;8260;51.422;6.786;2023-02-15T01:49:46;28.80;;;18.60;;
12493;SDS011;8260;51.422;6.786;2023-02-15T01:52:16;28.33;;;18.30;;
12493;SDS011;8260;51.422;6.786;2023-02-15T01:54:47;31.17;;;19.03;;
12493;SDS011;8260;51.422;6.786;2023-02-15T01:57:16;30.00;;;19.30;;
12493;SDS011;8260;51.422;6.786;2023-02-15T01:59:48;31.40;;;19.40;;
12493;SDS011;8260;51.422;6.786;2023-02-15T02:02:17;29.30;;;19.07;;
12493;SDS011;8260;51.422;6.786;2023-02-15T02:04:48;28.07;;;18.37;;
12493;SDS011;8260;51.422;6.786;2023-02-15T02:07:18;30.23;;;19.33;;
12493;SDS011;8260;51.422;6.786;2023-02-15T02:09:49;28.97;;;19.07;;
12493;SDS011;8260;51.422;6.786;2023-02-15T02:12:18;29.00;;;18.57;;
12493;SDS011;8260;51.422;6.786;2023-02-15T02:14:47;30.00;;;18.60;;
12493;SDS011;8260;51.422;6.786;2023-02-15T02:17:17;29.50;;;18.33;;
12493;SDS011;8260;51.422;6.786;2023-02-15T02:19:57;30.07;;;18.03;;
12493;SDS011;8260;51.422;6.786;2023-02-15T02:22:43;27.17;;;18.13;;
12493;SDS011;8260;51.422;6.786;2023-02-15T02:25:30;28.60;;;18.53;;
12493;SDS011;8260;51.422;6.786;2023-02-15T02:28:08;29.73;;;18.43;;
12493;SDS011;8260;51.422;6.786;2023-02-15T02:30:48;28.63;;;19.57;;
12493;SDS011;8260;51.422;6.786;2023-02-15T02:33:33;32.53;;;18.63;;
12493;SDS011;8260;51.422;6.786;2023-02-15T02:36:08;30.43;;;19.57;;
12493;SDS011;8260;51.422;6.786;2023-02-15T02:38:47;28.87;;;18.37;;
12493;SDS011;8260;51.422;6.786;2023-02-15T02:41:21;30.20;;;18.90;;
12493;SDS011;8260;51.422;6.786;2023-02-15T02:43:58;34.17;;;18.20;;
12493;SDS011;8260;51.422;6.786;2023-02-15T02:46:32;29.57;;;18.63;;
12493;SDS011;8260;51.422;6.786;2023-02-15T02:49:03;33.30;;;18.67;;
12493;SDS011;8260;51.422;6.786;2023-02-15T02:51:32;31.03;;;19.63;;
12493;SDS011;8260;51.422;6.786;2023-02-15T02:54:03;26.73;;;18.23;;
12493;SDS011;8260;51.422;6.786;2023-02-15T02:56:34;29.93;;;18.80;;
12493;SDS011;8260;51.422;6.786;2023-02-15T02:59:06;30.10;;;18.80;;
12493;SDS011;8260;51.422;6.786;2023-02-15T03:01:38;30.37;;;17.70;;
12493;SDS011;8260;51.422;6.786;2023-02-15T03:04:13;27.77;;;18.60;;
12493;SDS011;8260;51.422;6.786;2023-02-15T03:06:45;31.80;;;18.37;;
12493;SDS011;8260;51.422;6.786;2023-02-15T03:09:17;28.93;;;18.83;;
12493;SDS011;8260;51.422;6.786;2023-02-15T03:11:48;26.10;;;19.07;;
12493;SDS011;8260;51.422;6.786;2023-02-15T03:14:18;29.70;;;18.40;;
12493;SDS011;8260;51.422;6.786;2023-02-15T03:16:49;32.37;;;20.07;;
12493;SDS011;8260;51.422;6.786;2023-02-15T03:19:21;34.50;;;19.60;;
12493;SDS011;8260;51.422;6.786;2023-02-15T03:21:53;31.73;;;18.87;;
12493;SDS011;8260;51.422;6.786;2023-02-15T03:24:32;30.90;;;18.87;;
12493;SDS011;8260;51.422;6.786;2023-02-15T03:27:02;32.07;;;19.40;;
12493;SDS011;8260;51.422;6.786;2023-02-15T03:29:32;31.53;;;20.13;;
12493;SDS011;8260;51.422;6.786;2023-02-15T03:32:03;28.30;;;19.20;;
12493;SDS011;8260;51.422;6.786;2023-02-15T03:34:35;31.00;;;20.17;;
12493;SDS011;8260;51.422;6.786;2023-02-15T03:37:05;34.60;;;20.47;;
12493;SDS011;8260;51.422;6.786;2023-02-15T03:39:38;32.33;;;20.13;;
12493;SDS011;8260;51.422;6.786;2023-02-15T03:42:09;32.30;;;20.67;;
12493;SDS011;8260;51.422;6.786;2023-02-15T03:44:41;32.33;;;20.47;;
12493;SDS011;8260;51.422;6.786;2023-02-15T03:47:15;31.50;;;20.27;;
12493;SDS011;8260;51.422;6.786;2023-02-15T03:49:47;30.70;;;20.03;;
12493;SDS011;8260;51.422;6.786;2023-02-15T03:52:16;37.47;;;20.10;;
12493;SDS011;8260;51.422;6.786;2023-02-15T03:54:45;32.73;;;20.17;;
12493;SDS011;8260;51.422;6.786;2023-02-15T03:57:16;32.57;;;20.83;;
12493;SDS011;8260;51.422;6.786;2023-02-15T04:00:04;32.03;;;19.87;;
12493;SDS011;8260;51.422;6.786;2023-02-15T04:03:07;30.93;;;19.40;;
12493;SDS011;8260;51.422;6.786;2023-02-15T04:05:39;31.47;;;19.13;;
12493;SDS011;8260;51.422;6.786;2023-02-15T04:08:08;35.27;;;19.47;;
12493;SDS011;8260;51.422;6.786;2023-02-15T04:10:37;30.57;;;19.20;;
12493;SDS011;8260;51.422;6.786;2023-02-15T04:13:21;31.70;;;19.07;;
12493;SDS011;8260;51.422;6.786;2023-02-15T04:15:51;33.23;;;20.07;;
12493;SDS011;8260;51.422;6.786;2023-02-15T04:18:33;32.03;;;20.37;;
12493;SDS011;8260;51.422;6.786;2023-02-15T04:21:21;32.73;;;20.80;;
12493;SDS011;8260;51.422;6.786;2023-02-15T04:24:08;32.37;;;20.70;;
12493;SDS011;8260;51.422;6.786;2023-02-15T04:26:55;33.23;;;20.70;;
12493;SDS011;8260;51.422;6.786;2023-02-15T04:29:24;35.90;;;22.00;;
12493;SDS011;8260;51.422;6.786;2023-02-15T04:31:53;33.03;;;20.37;;
12493;SDS011;8260;51.422;6.786;2023-02-15T04:34:21;39.03;;;21.63;;
12493;SDS011;8260;51.422;6.786;2023-02-15T04:36:51;35.33;;;20.80;;
12493;SDS011;8260;51.422;6.786;2023-02-15T04:39:20;32.00;;;19.77;;
12493;SDS011;8260;51.422;6.786;2023-02-15T04:41:48;38.00;;;21.53;;
12493;SDS011;8260;51.422;6.786;2023-02-15T04:44:17;31.17;;;19.00;;
12493;SDS011;8260;51.422;6.786;2023-02-15T04:46:45;35.03;;;20.90;;
12493;SDS011;8260;51.422;6.786;2023-02-15T04:49:14;33.23;;;21.03;;
12493;SDS011;8260;51.422;6.786;2023-02-15T04:51:42;32.47;;;20.60;;
12493;SDS011;8260;51.422;6.786;2023-02-15T04:54:12;36.10;;;20.30;;
12493;SDS011;8260;51.422;6.786;2023-02-15T04:56:41;33.03;;;20.47;;
12493;SDS011;8260;51.422;6.786;2023-02-15T04:59:10;31.83;;;20.27;;
12493;SDS011;8260;51.422;6.786;2023-02-15T05:01:39;32.50;;;20.27;;
12493;SDS011;8260;51.422;6.786;2023-02-15T05:04:07;35.53;;;21.80;;
12493;SDS011;8260;51.422;6.786;2023-02-15T05:06:36;34.10;;;20.93;;
12493;SDS011;8260;51.422;6.786;2023-02-15T05:09:04;36.43;;;22.07;;
12493;SDS011;8260;51.422;6.786;2023-02-15T05:11:34;34.20;;;20.77;;
12493;SDS011;8260;51.422;6.786;2023-02-15T05:14:03;35.23;;;21.67;;
12493;SDS011;8260;51.422;6.786;2023-02-15T05:16:31;34.67;;;20.70;;
12493;SDS011;8260;51.422;6.786;2023-02-15T05:19:00;34.23;;;20.77;;
12493;SDS011;8260;51.422;6.786;2023-02-15T05:21:28;32.07;;;21.43;;
12493;SDS011;8260;51.422;6.786;2023-02-15T05:23:57;37.83;;;22.47;;
12493;SDS011;8260;51.422;6.786;2023-02-15T05:26:25;35.00;;;20.40;;
12493;SDS011;8260;51.422;6.786;2023-02-15T05:29:13;35.47;;;21.93;;
12493;SDS011;8260;51.422;6.786;2023-02-15T05:31:41;34.47;;;21.50;;
12493;SDS011;8260;51.422;6.786;2023-02-15T05:34:13;35.00;;;22.43;;
12493;SDS011;8260;51.422;6.786;2023-02-15T05:36:42;35.13;;;20.90;;
12493;SDS011;8260;51.422;6.786;2023-02-15T05:39:10;35.63;;;22.17;;
12493;SDS011;8260;51.422;6.786;2023-02-15T05:41:39;33.23;;;21.60;;
12493;SDS011;8260;51.422;6.786;2023-02-15T05:44:07;38.00;;;22.90;;
12493;SDS011;8260;51.422;6.786;2023-02-15T05:46:37;33.23;;;22.63;;
12493;SDS011;8260;51.422;6.786;2023-02-15T05:49:05;40.17;;;23.30;;
12493;SDS011;8260;51.422;6.786;2023-02-15T05:51:34;40.57;;;23.00;;
12493;SDS011;8260;51.422;6.786;2023-02-15T05:54:02;38.23;;;23.57;;
12493;SDS011;8260;51.422;6.786;2023-02-15T05:56:31;39.07;;;22.77;;
12493;SDS011;8260;51.422;6.786;2023-02-15T05:58:59;36.03;;;20.73;;
12493;SDS011;8260;51.422;6.786;2023-02-15T06:01:28;37.43;;;22.97;;
12493;SDS011;8260;51.422;6.786;2023-02-15T06:03:58;36.70;;;22.77;;
12493;SDS011;8260;51.422;6.786;2023-02-15T06:06:26;42.73;;;23.30;;
12493;SDS011;8260;51.422;6.786;2023-02-15T06:08:55;41.47;;;23.43;;
12493;SDS011;8260;51.422;6.786;2023-02-15T06:11:23;39.80;;;23.27;;
12493;SDS011;8260;51.422;6.786;2023-02-15T06:13:52;36.33;;;21.73;;
12493;SDS011;8260;51.422;6.786;2023-02-15T06:16:20;42.60;;;24.63;;
12493;SDS011;8260;51.422;6.786;2023-02-15T06:18:49;37.87;;;23.07;;
12493;SDS011;8260;51.422;6.786;2023-02-15T06:21:20;39.80;;;22.20;;
12493;SDS011;8260;51.422;6.786;2023-02-15T06:23:48;34.50;;;23.03;;
12493;SDS011;8260;51.422;6.786;2023-02-15T06:26:17;40.53;;;23.10;;
12493;SDS011;8260;51.422;6.786;2023-02-15T06:28:45;39.23;;;22.60;;
12493;SDS011;8260;51.422;6.786;2023-02-15T06:31:14;36.63;;;21.83;;
12493;SDS011;8260;51.422;6.786;2023-02-15T06:33:42;38.13;;;22.83;;
12493;SDS011;8260;51.422;6.786;2023-02-15T06:36:11;38.50;;;22.93;;
12493;SDS011;8260;51.422;6.786;2023-02-15T06:38:41;39.60;;;22.53;;
12493;SDS011;8260;51.422;6.786;2023-02-15T06:41:09;42.63;;;23.60;;
12493;SDS011;8260;51.422;6.786;2023-02-15T06:43:38;35.40;;;22.00;;
12493;SDS011;8260;51.422;6.786;2023-02-15T06:46:06;42.70;;;24.27;;
12493;SDS011;8260;51.422;6.786;2023-02-15T06:48:35;37.07;;;21.97;;
12493;SDS011;8260;51.422;6.786;2023-02-15T06:51:03;39.57;;;23.53;;
12493;SDS011;8260;51.422;6.786;2023-02-15T06:53:32;39.63;;;23.53;;
12493;SDS011;8260;51.422;6.786;2023-02-15T06:56:03;41.57;;;23.37;;
12493;SDS011;8260;51.422;6.786;2023-02-15T06:58:35;42.23;;;22.40;;
12493;SDS011;8260;51.422;6.786;2023-02-15T07:01:04;35.20;;;21.77;;
12493;SDS011;8260;51.422;6.786;2023-02-15T07:03:33;36.23;;;22.00;;
12493;SDS011;8260;51.422;6.786;2023-02-15T07:06:02;37.40;;;22.27;;
12493;SDS011;8260;51.422;6.786;2023-02-15T07:08:34;36.80;;;22.30;;
12493;SDS011;8260;51.422;6.786;2023-02-15T07:11:04;40.40;;;23.33;;
12493;SDS011;8260;51.422;6.786;2023-02-15T07:13:51;34.73;;;21.13;;
12493;SDS011;8260;51.422;6.786;2023-02-15T07:16:19;34.80;;;21.50;;
12493;SDS011;8260;51.422;6.786;2023-02-15T07:18:48;37.97;;;22.57;;
12493;SDS011;8260;51.422;6.786;2023-02-15T07:21:16;35.90;;;21.33;;
12493;SDS011;8260;51.422;6.786;2023-02-15T07:23:45;35.83;;;21.50;;
12493;SDS011;8260;51.422;6.786;2023-02-15T07:26:15;36.53;;;23.53;;
12493;SDS011;8260;51.422;6.786;2023-02-15T07:28:44;36.90;;;21.67;;
12493;SDS011;8260;51.422;6.786;2023-02-15T07:31:12;36.37;;;21.70;;
12493;SDS011;8260;51.422;6.786;2023-02-15T07:33:41;32.70;;;20.67;;
12493;SDS011;8260;51.422;6.786;2023-02-15T07:36:09;35.17;;;21.40;;
12493;SDS011;8260;51.422;6.786;2023-02-15T07:38:39;35.63;;;21.87;;
12493;SDS011;8260;51.422;6.786;2023-02-15T07:41:08;35.20;;;21.80;;
12493;SDS011;8260;51.422;6.786;2023-02-15T07:43:39;34.27;;;20.33;;
12493;SDS011;8260;51.422;6.786;2023-02-15T07:46:08;35.07;;;20.97;;
12493;SDS011;8260;51.422;6.786;2023-02-15T07:48:37;33.53;;;20.67;;
12493;SDS011;8260;51.422;6.786;2023-02-15T07:51:07;40.33;;;21.80;;
12493;SDS011;8260;51.422;6.786;2023-02-15T07:53:36;33.60;;;20.87;;
12493;SDS011;8260;51.422;6.786;2023-02-15T07:56:05;35.87;;;20.63;;
12493;SDS011;8260;51.422;6.786;2023-02-15T07:58:36;32.47;;;20.90;;
12493;SDS011;8260;51.422;6.786;2023-02-15T08:01:24;29.37;;;18.43;;
12493;SDS011;8260;51.422;6.786;2023-02-15T08:03:53;32.33;;;19.37;;
12493;SDS011;8260;51.422;6.786;2023-02-15T08:06:23;27.83;;;19.17;;
12493;SDS011;8260;51.422;6.786;2023-02-15T08:08:52;32.90;;;19.87;;
12493;SDS011;8260;51.422;6.786;2023-02-15T08:11:21;30.60;;;19.03;;
12493;SDS011;8260;51.422;6.786;2023-02-15T08:13:55;28.27;;;17.83;;
12493;SDS011;8260;51.422;6.786;2023-02-15T08:16:28;30.30;;;18.63;;
12493;SDS011;8260;51.422;6.786;2023-02-15T08:18:57;29.40;;;19.43;;
12493;SDS011;8260;51.422;6.786;2023-02-15T08:21:27;27.83;;;18.17;;
12493;SDS011;8260;51.422;6.786;2023-02-15T08:23:56;28.90;;;17.47;;
12493;SDS011;8260;51.422;6.786;2023-02-15T08:26:25;25.07;;;17.13;;
12493;SDS011;8260;51.422;6.786;2023-02-15T08:28:54;26.90;;;17.57;;
12493;SDS011;8260;51.422;6.786;2023-02-15T08:31:22;29.50;;;18.13;;
12493;SDS011;8260;51.422;6.786;2023-02-15T08:33:53;28.67;;;17.47;;
12493;SDS011;8260;51.422;6.786;2023-02-15T08:36:22;26.50;;;16.50;;
12493;SDS011;8260;51.422;6.786;2023-02-15T08:38:51;30.10;;;17.23;;
12493;SDS011;8260;51.422;6.786;2023-02-15T08:41:21;27.03;;;17.17;;
12493;SDS011;8260;51.422;6.786;2023-02-15T08:43:50;28.10;;;16.77;;
12493;SDS011;8260;51.422;6.786;2023-02-15T08:46:20;30.70;;;17.93;;
12493;SDS011;8260;51.422;6.786;2023-02-15T08:48:48;27.50;;;17.13;;
12493;SDS011;8260;51.422;6.786;2023-02-15T08:51:19;25.87;;;16.00;;
12493;SDS011;8260;51.422;6.786;2023-02-15T08:53:49;23.30;;;15.93;;
12493;SDS011;8260;51.422;6.786;2023-02-15T08:56:19;24.17;;;16.30;;
12493;SDS011;8260;51.422;6.786;2023-02-15T08:58:49;24.80;;;15.53;;
12493;SDS011;8260;51.422;6.786;2023-02-15T09:01:18;23.85;;;15.45;;
12493;SDS011;8260;51.422;6.786;2023-02-15T09:03:48;24.05;;;15.52;;
12493;SDS011;8260;51.422;6.786;2023-02-15T09:06:20;24.38;;;15.68;;
12493;SDS011;8260;51.422;6.786;2023-02-15T09:08:49;23.97;;;15.40;;
12493;SDS011;8260;51.422;6.786;2023-02-15T09:11:18;21.50;;;15.25;;
12493;SDS011;8260;51.422;6.786;2023-02-15T09:13:51;25.38;;;15.93;;
12493;SDS011;8260;51.422;6.786;2023-02-15T09:16:21;21.85;;;15.43;;
12493;SDS011;8260;51.422;6.786;2023-02-15T09:18:50;22.80;;;15.18;;
12493;SDS011;8260;51.422;6.786;2023-02-15T09:21:19;22.33;;;14.65;;
12493;SDS011;8260;51.422;6.786;2023-02-15T09:23:50;23.88;;;16.13;;
12493;SDS011;8260;51.422;6.786;2023-02-15T09:26:19;24.70;;;15.80;;
12493;SDS011;8260;51.422;6.786;2023-02-15T09:28:51;21.00;;;14.23;;
12493;SDS011;8260;51.422;6.786;2023-02-15T09:31:22;23.10;;;14.35;;
12493;SDS011;8260;51.422;6.786;2023-02-15T09:33:51;24.52;;;16.13;;
12493;SDS011;8260;51.422;6.786;2023-02-15T09:36:20;22.23;;;13.98;;
12493;SDS011;8260;51.422;6.786;2023-02-15T09:38:54;21.90;;;14.20;;
12493;SDS011;8260;51.422;6.786;2023-02-15T09:41:32;22.60;;;14.45;;
12493;SDS011;8260;51.422;6.786;2023-02-15T09:44:05;19.98;;;13.70;;
12493;SDS011;8260;51.422;6.786;2023-02-15T09:46:44;24.10;;;15.93;;
12493;SDS011;8260;51.422;6.786;2023-02-15T09:49:16;22.05;;;14.52;;
12493;SDS011;8260;51.422;6.786;2023-02-15T09:51:54;21.88;;;14.30;;
12493;SDS011;8260;51.422;6.786;2023-02-15T09:54:35;20.38;;;14.88;;
12493;SDS011;8260;51.422;6.786;2023-02-15T09:57:10;21.17;;;13.40;;
12493;SDS011;8260;51.422;6.786;2023-02-15T09:59:44;23.67;;;14.45;;
12493;SDS011;8260;51.422;6.786;2023-02-15T10:02:19;19.90;;;13.80;;
12493;SDS011;8260;51.422;6.786;2023-02-15T10:04:54;18.55;;;13.85;;
12493;SDS011;8260;51.422;6.786;2023-02-15T10:07:32;22.98;;;15.35;;
12493;SDS011;8260;51.422;6.786;2023-02-15T10:10:07;20.33;;;14.07;;
12493;SDS011;8260;51.422;6.786;2023-02-15T10:12:49;19.48;;;14.02;;
12493;SDS011;8260;51.422;6.786;2023-02-15T10:15:23;19.73;;;13.60;;
12493;SDS011;8260;51.422;6.786;2023-02-15T10:18:00;19.77;;;13.68;;
12493;SDS011;8260;51.422;6.786;2023-02-15T10:20:32;22.45;;;15.27;;
12493;SDS011;8260;51.422;6.786;2023-02-15T10:23:08;19.13;;;13.10;;
12493;SDS011;8260;51.422;6.786;2023-02-15T10:25:43;18.75;;;14.05;;
12493;SDS011;8260;51.422;6.786;2023-02-15T10:28:16;20.58;;;13.00;;
12493;SDS011;8260;51.422;6.786;2023-02-15T10:30:46;19.00;;;13.48;;
12493;SDS011;8260;51.422;6.786;2023-02-15T10:33:20;21.15;;;13.57;;
12493;SDS011;8260;51.422;6.786;2023-02-15T10:35:54;18.75;;;13.10;;
12493;SDS011;8260;51.422;6.786;2023-02-15T10:38:28;19.27;;;13.82;;
12493;SDS011;8260;51.422;6.786;2023-02-15T10:41:04;18.55;;;13.75;;
12493;SDS011;8260;51.422;6.786;2023-02-15T10:43:41;19.40;;;13.65;;
12493;SDS011;8260;51.422;6.786;2023-02-15T10:46:17;17.30;;;13.52;;
12493;SDS011;8260;51.422;6.786;2023-02-15T10:48:52;16.60;;;12.30;;
12493;SDS011;8260;51.422;6.786;2023-02-15T10:51:25;18.45;;;13.75;;
12493;SDS011;8260;51.422;6.786;2023-02-15T10:54:04;20.17;;;14.20;;
12493;SDS011;8260;51.422;6.786;2023-02-15T10:56:37;20.20;;;13.75;;
12493;SDS011;8260;51.422;6.786;2023-02-15T10:59:15;18.08;;;12.88;;
12493;SDS011;8260;51.422;6.786;2023-02-15T11:01:49;18.92;;;13.85;;
12493;SDS011;8260;51.422;6.786;2023-02-15T11:04:30;18.65;;;13.73;;
12493;SDS011;8260;51.422;6.786;2023-02-15T11:07:04;17.23;;;13.48;;
12493;SDS011;8260;51.422;6.786;2023-02-15T11:10:18;19.17;;;14.43;;
12493;SDS011;8260;51.422;6.786;2023-02-15T11:12:51;16.77;;;13.45;;
12493;SDS011;8260;51.422;6.786;2023-02-15T11:15:22;18.58;;;13.98;;
12493;SDS011;8260;51.422;6.786;2023-02-15T11:17:55;19.52;;;13.25;;
12493;SDS011;8260;51.422;6.786;2023-02-15T11:20:25;21.20;;;13.07;;
12493;SDS011;8260;51.422;6.786;2023-02-15T11:22:55;17.38;;;13.98;;
12493;SDS011;8260;51.422;6.786;2023-02-15T11:25:26;17.77;;;13.70;;
12493;SDS011;8260;51.422;6.786;2023-02-15T11:27:56;18.85;;;13.82;;
12493;SDS011;8260;51.422;6.786;2023-02-15T11:30:25;16.90;;;14.18;;
12493;SDS011;8260;51.422;6.786;2023-02-15T11:32:55;19.15;;;13.82;;
12493;SDS011;8260;51.422;6.786;2023-02-15T11:35:26;18.73;;;14.13;;
12493;SDS011;8260;51.422;6.786;2023-02-15T11:37:58;18.95;;;12.77;;
12493;SDS011;8260;51.422;6.786;2023-02-15T11:40:32;18.25;;;13.50;;
12493;SDS011;8260;51.422;6.786;2023-02-15T11:43:03;20.02;;;13.65;;
12493;SDS011;8260;51.422;6.786;2023-02-15T11:45:33;17.50;;;13.38;;
12493;SDS011;8260;51.422;6.786;2023-02-15T11:48:05;18.98;;;13.10;;
12493;SDS011;8260;51.422;6.786;2023-02-15T11:50:36;16.75;;;12.70;;
12493;SDS011;8260;51.422;6.786;2023-02-15T11:53:06;18.35;;;13.13;;
12493;SDS011;8260;51.422;6.786;2023-02-15T11:55:37;17.05;;;12.98;;
12493;SDS011;8260;51.422;6.786;2023-02-15T11:58:08;19.30;;;13.10;;
12493;SDS011;8260;51.422;6.786;2023-02-15T12:00:39;18.20;;;13.40;;
12493;SDS011;8260;51.422;6.786;2023-02-15T12:03:11;14.48;;;12.25;;
12493;SDS011;8260;51.422;6.786;2023-02-15T12:05:44;16.55;;;12.95;;
12493;SDS011;8260;51.422;6.786;2023-02-15T12:08:15;17.23;;;12.93;;
12493;SDS011;8260;51.422;6.786;2023-02-15T12:10:53;15.85;;;12.23;;
12493;SDS011;8260;51.422;6.786;2023-02-15T12:13:26;16.65;;;12.43;;
12493;SDS011;8260;51.422;6.786;2023-02-15T12:15:55;14.52;;;11.80;;
12493;SDS011;8260;51.422;6.786;2023-02-15T12:18:35;14.88;;;11.57;;
12493;SDS011;8260;51.422;6.786;2023-02-15T12:21:05;15.50;;;11.35;;
12493;SDS011;8260;51.422;6.786;2023-02-15T12:23:39;17.48;;;12.15;;
12493;SDS011;8260;51.422;6.786;2023-02-15T12:26:10;15.85;;;12.07;;
12493;SDS011;8260;51.422;6.786;2023-02-15T12:28:40;18.08;;;13.07;;
12493;SDS011;8260;51.422;6.786;2023-02-15T12:31:18;15.13;;;11.95;;
12493;SDS011;8260;51.422;6.786;2023-02-15T12:33:47;16.13;;;12.50;;
12493;SDS011;8260;51.422;6.786;2023-02-15T12:36:20;14.60;;;12.02;;
12493;SDS011;8260;51.422;6.786;2023-02-15T12:41:36;15.82;;;11.57;;
12493;SDS011;8260;51.422;6.786;2023-02-15T12:44:07;15.98;;;12.48;;
12493;SDS011;8260;51.422;6.786;2023-02-15T12:46:39;14.85;;;12.43;;
12493;SDS011;8260;51.422;6.786;2023-02-15T12:49:14;15.95;;;11.00;;
12493;SDS011;8260;51.422;6.786;2023-02-15T12:51:47;17.02;;;12.52;;
12493;SDS011;8260;51.422;6.786;2023-02-15T12:54:17;16.73;;;12.07;;
12493;SDS011;8260;51.422;6.786;2023-02-15T12:56:50;13.70;;;10.90;;
12493;SDS011;8260;51.422;6.786;2023-02-15T12:59:19;16.35;;;11.68;;
12493;SDS011;8260;51.422;6.786;2023-02-15T13:01:48;15.73;;;11.95;;
12493;SDS011;8260;51.422;6.786;2023-02-15T13:04:24;14.52;;;11.02;;
12493;SDS011;8260;51.422;6.786;2023-02-15T13:06:54;16.40;;;11.73;;
12493;SDS011;8260;51.422;6.786;2023-02-15T13:09:25;15.23;;;11.07;;
12493;SDS011;8260;51.422;6.786;2023-02-15T13:12:08;14.05;;;11.60;;
12493;SDS011;8260;51.422;6.786;2023-02-15T13:14:38;14.57;;;11.63;;
12493;SDS011;8260;51.422;6.786;2023-02-15T13:17:11;15.68;;;11.30;;
12493;SDS011;8260;51.422;6.786;2023-02-15T13:19:40;15.23;;;10.93;;
12493;SDS011;8260;51.422;6.786;2023-02-15T13:22:11;16.33;;;10.35;;
12493;SDS011;8260;51.422;6.786;2023-02-15T13:24:42;14.70;;;11.60;;
12493;SDS011;8260;51.422;6.786;2023-02-15T13:27:14;21.90;;;14.27;;
12493;SDS011;8260;51.422;6.786;2023-02-15T13:29:43;15.45;;;12.82;;
12493;SDS011;8260;51.422;6.786;2023-02-15T13:32:16;18.77;;;11.93;;
12493;SDS011;8260;51.422;6.786;2023-02-15T13:34:49;16.77;;;12.10;;
12493;SDS011;8260;51.422;6.786;2023-02-15T13:37:19;14.75;;;10.77;;
12493;SDS011;8260;51.422;6.786;2023-02-15T13:39:49;16.98;;;11.63;;
12493;SDS011;8260;51.422;6.786;2023-02-15T13:42:22;14.93;;;10.60;;
12493;SDS011;8260;51.422;6.786;2023-02-15T13:45:02;14.93;;;10.68;;
12493;SDS011;8260;51.422;6.786;2023-02-15T13:47:35;15.73;;;10.77;;
12493;SDS011;8260;51.422;6.786;2023-02-15T13:50:15;17.27;;;10.93;;
12493;SDS011;8260;51.422;6.786;2023-02-15T13:52:51;17.10;;;11.15;;
12493;SDS011;8260;51.422;6.786;2023-02-15T13:55:30;15.07;;;10.88;;
12493;SDS011;8260;51.422;6.786;2023-02-15T13:58:06;14.88;;;11.32;;
12493;SDS011;8260;51.422;6.786;2023-02-15T14:00:40;15.40;;;10.52;;
12493;SDS011;8260;51.422;6.786;2023-02-15T14:03:26;15.43;;;11.52;;
12493;SDS011;8260;51.422;6.786;2023-02-15T14:06:05;16.83;;;10.85;;
12493;SDS011;8260;51.422;6.786;2023-02-15T14:08:52;14.75;;;11.60;;
12493;SDS011;8260;51.422;6.786;2023-02-15T14:11:25;19.00;;;11.27;;
12493;SDS011;8260;51.422;6.786;2023-02-15T14:14:03;20.73;;;11.68;;
12493;SDS011;8260;51.422;6.786;2023-02-15T14:16:36;17.65;;;11.65;;
12493;SDS011;8260;51.422;6.786;2023-02-15T14:19:13;15.80;;;11.85;;
12493;SDS011;8260;51.422;6.786;2023-02-15T14:21:46;16.13;;;11.50;;
12493;SDS011;8260;51.422;6.786;2023-02-15T14:24:22;17.00;;;11.88;;
12493;SDS011;8260;51.422;6.786;2023-02-15T14:26:56;18.15;;;12.60;;
12493;SDS011;8260;51.422;6.786;2023-02-15T14:29:32;17.83;;;11.45;;
12493;SDS011;8260;51.422;6.786;2023-02-15T14:32:08;18.38;;;12.02;;
12493;SDS011;8260;51.422;6.786;2023-02-15T14:34:42;17.75;;;11.32;;
12493;SDS011;8260;51.422;6.786;2023-02-15T14:37:11;18.35;;;11.77;;
12493;SDS011;8260;51.422;6.786;2023-02-15T14:39:43;16.23;;;11.15;;
12493;SDS011;8260;51.422;6.786;2023-02-15T14:42:33;16.45;;;11.38;;
12493;SDS011;8260;51.422;6.786;2023-02-15T14:45:05;16.40;;;11.38;;
12493;SDS011;8260;51.422;6.786;2023-02-15T14:47:56;15.73;;;11.00;;
12493;SDS011;8260;51.422;6.786;2023-02-15T14:50:37;20.48;;;11.00;;
12493;SDS011;8260;51.422;6.786;2023-02-15T14:53:17;17.05;;;10.75;;
12493;SDS011;8260;51.422;6.786;2023-02-15T14:56:04;16.45;;;11.10;;
12493;SDS011;8260;51.422;6.786;2023-02-15T14:58:34;20.17;;;11.30;;
12493;SDS011;8260;51.422;6.786;2023-02-15T15:01:03;18.10;;;11.88;;
12493;SDS011;8260;51.422;6.786;2023-02-15T15:03:35;18.55;;;11.38;;